createdAt,value
2022-09-27T00:00:55.877Z,0
2022-09-27T00:01:57.244Z,0
2022-09-27T00:02:57.363Z,0
2022-09-27T00:03:57.651Z,0
2022-09-27T00:04:57.861Z,0
2022-09-27T00:05:58.508Z,0
2022-09-27T00:06:59.404Z,0
2022-09-27T00:08:00.325Z,0
2022-09-27T00:09:01.510Z,0
2022-09-27T00:10:02.101Z,0
2022-09-27T00:11:02.017Z,0
2022-09-27T00:12:02.650Z,0
2022-09-27T00:13:03.902Z,0
2022-09-27T00:14:03.806Z,0
2022-09-27T00:15:04.443Z,0
2022-09-27T00:16:05.469Z,0
2022-09-27T00:17:06.430Z,0
2022-09-27T00:18:06.641Z,0
2022-09-27T00:19:06.270Z,0
2022-09-27T00:20:06.996Z,0
2022-09-27T00:21:08.208Z,0
2022-09-27T00:22:08.127Z,0
2022-09-27T00:23:09.366Z,0
2022-09-27T00:24:09.553Z,0
2022-09-27T00:25:10.166Z,0
2022-09-27T00:26:11.063Z,0
2022-09-27T00:27:11.390Z,0
2022-09-27T00:28:12.949Z,0
2022-09-27T00:29:12.893Z,0
2022-09-27T00:30:13.388Z,0
2022-09-27T00:31:14.204Z,0
2022-09-27T00:32:15.125Z,0
2022-09-27T00:33:15.334Z,0
2022-09-27T00:34:15.252Z,0
2022-09-27T00:35:15.876Z,0
2022-09-27T00:36:16.805Z,0
2022-09-27T00:37:18.290Z,0
2022-09-27T00:38:18.497Z,0
2022-09-27T00:39:19.206Z,0
2022-09-27T00:40:24.569Z,0
2022-09-27T00:41:20.811Z,0
2022-09-27T00:42:20.174Z,0
2022-09-27T00:43:21.452Z,0
2022-09-27T00:44:21.928Z,0
2022-09-27T00:45:21.550Z,0
2022-09-27T00:46:22.568Z,0
2022-09-27T00:47:23.247Z,0
2022-09-27T00:48:23.860Z,0
2022-09-27T00:49:25.489Z,0
2022-09-27T00:50:24.912Z,0
2022-09-27T00:51:25.805Z,0
2022-09-27T00:52:26.127Z,0
2022-09-27T00:53:27.352Z,0
2022-09-27T00:54:28.262Z,0
2022-09-27T00:55:27.886Z,0
2022-09-27T00:56:28.820Z,0
2022-09-27T00:57:28.736Z,0
2022-09-27T00:58:29.988Z,0
2022-09-27T00:59:30.198Z,0
2022-09-27T01:00:29.909Z,0
2022-09-27T01:01:31.031Z,0
2022-09-27T01:02:31.632Z,0
2022-09-27T01:03:31.245Z,0
2022-09-27T01:04:32.151Z,0
2022-09-27T01:05:33.353Z,0
2022-09-27T01:06:34.565Z,0
2022-09-27T01:07:34.755Z,0
2022-09-27T01:08:34.708Z,0
2022-09-27T01:09:35.901Z,0
2022-09-27T01:10:36.594Z,0
2022-09-27T01:11:37.811Z,0
2022-09-27T01:12:37.428Z,0
2022-09-27T01:13:38.965Z,0
2022-09-27T01:14:38.846Z,0
2022-09-27T01:15:40.218Z,0
2022-09-27T01:16:40.454Z,0
2022-09-27T01:17:40.663Z,0
2022-09-27T01:18:40.874Z,0
2022-09-27T01:19:41.788Z,0
2022-09-27T01:20:42.271Z,0
2022-09-27T01:21:43.461Z,0
2022-09-27T01:22:43.498Z,0
2022-09-27T01:23:45.448Z,0
2022-09-27T01:24:45.336Z,0
2022-09-27T01:25:46.244Z,0
2022-09-27T01:26:46.866Z,0
2022-09-27T01:27:47.491Z,0
2022-09-27T01:28:48.531Z,0
2022-09-27T01:29:49.722Z,0
2022-09-27T01:30:50.493Z,0
2022-09-27T01:31:51.511Z,0
2022-09-27T01:32:52.155Z,0
2022-09-27T01:33:52.490Z,0
2022-09-27T01:34:53.679Z,0
2022-09-27T01:35:54.604Z,0
2022-09-27T01:36:54.945Z,0
2022-09-27T01:37:56.135Z,0
2022-09-27T01:38:56.360Z,0
2022-09-27T01:39:56.269Z,0
2022-09-27T01:40:57.299Z,0
2022-09-27T01:41:57.537Z,0
2022-09-27T01:42:57.758Z,0
2022-09-27T01:43:58.300Z,0
2022-09-27T01:44:58.215Z,0
2022-09-27T01:45:59.604Z,0
2022-09-27T01:46:59.566Z,0
2022-09-27T01:48:00.158Z,0
2022-09-27T01:49:01.053Z,0
2022-09-27T01:50:01.377Z,0
2022-09-27T01:51:02.376Z,0
2022-09-27T01:52:02.570Z,0
2022-09-27T01:53:02.203Z,0
2022-09-27T01:54:03.122Z,0
2022-09-27T01:55:04.306Z,0
2022-09-27T01:56:05.234Z,0
2022-09-27T01:57:05.427Z,0
2022-09-27T01:58:05.351Z,0
2022-09-27T01:59:06.600Z,0
2022-09-27T02:00:06.774Z,0
2022-09-27T02:01:06.883Z,0
2022-09-27T02:02:08.730Z,0
2022-09-27T02:03:09.066Z,0
2022-09-27T02:04:09.262Z,0
2022-09-27T02:05:09.450Z,0
2022-09-27T02:06:12.533Z,0
2022-09-27T02:07:10.387Z,0
2022-09-27T02:08:11.276Z,0
2022-09-27T02:09:12.480Z,0
2022-09-27T02:10:13.413Z,0
2022-09-27T02:11:13.831Z,0
2022-09-27T02:12:14.141Z,0
2022-09-27T02:13:15.032Z,0
2022-09-27T02:14:16.297Z,0
2022-09-27T02:15:16.200Z,0
2022-09-27T02:16:17.188Z,0
2022-09-27T02:17:18.434Z,0
2022-09-27T02:18:18.346Z,0
2022-09-27T02:19:17.952Z,0
2022-09-27T02:20:18.590Z,0
2022-09-27T02:21:19.899Z,0
2022-09-27T02:22:19.813Z,0
2022-09-27T02:23:21.300Z,0
2022-09-27T02:24:20.654Z,0
2022-09-27T02:25:20.984Z,0
2022-09-27T02:26:21.606Z,0
2022-09-27T02:27:21.644Z,0
2022-09-27T02:28:23.263Z,0
2022-09-27T02:29:24.304Z,0
2022-09-27T02:30:24.775Z,0
2022-09-27T02:31:25.989Z,0
2022-09-27T02:32:25.653Z,0
2022-09-27T02:33:26.568Z,0
2022-09-27T02:34:27.208Z,0
2022-09-27T02:35:28.395Z,0
2022-09-27T02:36:28.603Z,0
2022-09-27T02:37:29.516Z,0
2022-09-27T02:38:30.451Z,0
2022-09-27T02:39:31.229Z,0
2022-09-27T02:40:32.951Z,0
2022-09-27T02:41:32.549Z,0
2022-09-27T02:42:33.461Z,0
2022-09-27T02:43:34.102Z,0
2022-09-27T02:44:35.363Z,0
2022-09-27T02:45:35.833Z,0
2022-09-27T02:46:36.137Z,0
2022-09-27T02:47:36.091Z,0
2022-09-27T02:48:37.001Z,0
2022-09-27T02:49:37.628Z,0
2022-09-27T02:50:38.240Z,0
2022-09-27T02:51:38.662Z,0
2022-09-27T02:52:39.004Z,0
2022-09-27T02:53:40.227Z,0
2022-09-27T02:54:40.144Z,0
2022-09-27T02:55:40.630Z,0
2022-09-27T02:56:40.265Z,0
2022-09-27T02:57:40.938Z,0
2022-09-27T02:58:42.144Z,0
2022-09-27T02:59:43.230Z,0
2022-09-27T03:00:43.400Z,0
2022-09-27T03:01:43.930Z,0
2022-09-27T03:02:44.331Z,0
2022-09-27T03:03:44.261Z,0
2022-09-27T03:04:44.753Z,0
2022-09-27T03:05:44.364Z,0
2022-09-27T03:06:44.693Z,0
2022-09-27T03:07:45.327Z,0
2022-09-27T03:08:45.951Z,0
2022-09-27T03:09:47.196Z,0
2022-09-27T03:10:46.797Z,0
2022-09-27T03:11:47.214Z,0
2022-09-27T03:12:47.850Z,0
2022-09-27T03:14:19.988Z,0
2022-09-27T03:14:49.531Z,0
2022-09-27T03:15:48.835Z,0
2022-09-27T03:16:50.392Z,0
2022-09-27T03:17:50.591Z,0
2022-09-27T03:18:51.225Z,0
2022-09-27T03:19:52.408Z,0
2022-09-27T03:20:53.021Z,0
2022-09-27T03:21:53.751Z,0
2022-09-27T03:22:55.239Z,0
2022-09-27T03:23:54.854Z,0
2022-09-27T03:24:55.776Z,0
2022-09-27T03:25:56.978Z,0
2022-09-27T03:26:57.169Z,0
2022-09-27T03:27:56.787Z,0
2022-09-27T03:28:57.675Z,0
2022-09-27T03:29:58.913Z,0
2022-09-27T03:30:59.183Z,0
2022-09-27T03:31:59.706Z,0
2022-09-27T03:33:00.451Z,0
2022-09-27T03:34:00.356Z,0
2022-09-27T03:35:01.267Z,0
2022-09-27T03:36:01.157Z,0
2022-09-27T03:37:02.081Z,0
2022-09-27T03:38:02.291Z,0
2022-09-27T03:39:03.224Z,0
2022-09-27T03:40:03.717Z,0
2022-09-27T03:41:04.373Z,0
2022-09-27T03:42:04.393Z,0
2022-09-27T03:43:05.971Z,0
2022-09-27T03:44:05.290Z,0
2022-09-27T03:45:06.535Z,0
2022-09-27T03:46:06.377Z,0
2022-09-27T03:47:07.013Z,0
2022-09-27T03:48:07.916Z,0
2022-09-27T03:49:07.914Z,0
2022-09-27T03:50:09.161Z,0
2022-09-27T03:51:09.079Z,0
2022-09-27T03:52:09.757Z,0
2022-09-27T03:53:10.645Z,0
2022-09-27T03:54:11.553Z,0
2022-09-27T03:55:18.688Z,0
2022-09-27T03:56:12.004Z,0
2022-09-27T03:57:13.217Z,0
2022-09-27T03:58:13.692Z,0
2022-09-27T03:59:13.714Z,0
2022-09-27T04:00:14.393Z,0
2022-09-27T04:01:14.929Z,0
2022-09-27T04:02:15.667Z,0
2022-09-27T04:03:15.704Z,0
2022-09-27T04:04:22.216Z,0
2022-09-27T04:05:17.106Z,0
2022-09-27T04:06:17.726Z,0
2022-09-27T04:07:19.232Z,0
2022-09-27T04:08:19.718Z,0
2022-09-27T04:09:19.976Z,0
2022-09-27T04:10:20.372Z,0
2022-09-27T04:11:21.560Z,0
2022-09-27T04:12:22.566Z,0
2022-09-27T04:13:22.162Z,0
2022-09-27T04:14:23.099Z,0
2022-09-27T04:15:24.638Z,0
2022-09-27T04:16:25.023Z,0
2022-09-27T04:17:25.685Z,0
2022-09-27T04:18:25.294Z,0
2022-09-27T04:19:26.696Z,0
2022-09-27T04:20:26.025Z,0
2022-09-27T04:21:27.239Z,0
2022-09-27T04:22:27.958Z,0
2022-09-27T04:23:34.191Z,0
2022-09-27T04:24:29.384Z,0
2022-09-27T04:25:29.581Z,0
2022-09-27T04:26:30.064Z,0
2022-09-27T04:27:30.276Z,0
2022-09-27T04:28:30.196Z,0
2022-09-27T04:29:31.122Z,0
2022-09-27T04:30:32.137Z,0
2022-09-27T04:31:32.274Z,0
2022-09-27T04:32:32.284Z,0
2022-09-27T04:33:33.464Z,0
2022-09-27T04:34:33.094Z,0
2022-09-27T04:35:33.152Z,0
2022-09-27T04:36:34.486Z,0
2022-09-27T04:37:35.411Z,0
2022-09-27T04:38:35.896Z,0
2022-09-27T04:39:36.401Z,0
2022-09-27T04:40:36.208Z,0
2022-09-27T04:41:37.170Z,0
2022-09-27T04:42:39.755Z,0
2022-09-27T04:43:37.652Z,0
2022-09-27T04:44:38.835Z,0
2022-09-27T04:45:40.287Z,0
2022-09-27T04:46:41.051Z,0
2022-09-27T04:47:41.307Z,0
2022-09-27T04:48:41.639Z,0
2022-09-27T04:49:43.120Z,0
2022-09-27T04:50:47.359Z,0
2022-09-27T04:51:42.991Z,0
2022-09-27T04:52:43.683Z,0
2022-09-27T04:53:45.175Z,0
2022-09-27T04:54:45.395Z,0
2022-09-27T04:55:46.328Z,0
2022-09-27T04:56:46.555Z,0
2022-09-27T04:57:46.528Z,0
2022-09-27T04:58:47.458Z,0
2022-09-27T04:59:48.148Z,0
2022-09-27T05:00:49.500Z,0
2022-09-27T05:01:50.234Z,0
2022-09-27T05:02:50.829Z,0
2022-09-27T05:03:51.128Z,0
2022-09-27T05:04:52.052Z,0
2022-09-27T05:05:51.967Z,0
2022-09-27T05:06:56.999Z,0
2022-09-27T05:07:53.820Z,0
2022-09-27T05:08:54.160Z,0
2022-09-27T05:09:54.198Z,0
2022-09-27T05:10:55.409Z,0
2022-09-27T05:11:55.320Z,0
2022-09-27T05:12:56.602Z,0
2022-09-27T05:13:56.794Z,0
2022-09-27T05:14:57.129Z,0
2022-09-27T05:15:58.389Z,0
2022-09-27T05:16:59.117Z,0
2022-09-27T05:17:59.067Z,0
2022-09-27T05:18:59.273Z,0
2022-09-27T05:19:59.176Z,0
2022-09-27T05:20:59.513Z,0
2022-09-27T05:22:00.443Z,0
2022-09-27T05:23:01.536Z,0
2022-09-27T05:24:04.309Z,0
2022-09-27T05:25:03.028Z,0
2022-09-27T05:26:04.525Z,0
2022-09-27T05:27:05.078Z,0
2022-09-27T05:28:05.293Z,0
2022-09-27T05:29:05.206Z,0
2022-09-27T05:30:06.103Z,0
2022-09-27T05:31:07.794Z,0
2022-09-27T05:32:08.031Z,0
2022-09-27T05:33:08.470Z,0
2022-09-27T05:34:09.082Z,0
2022-09-27T05:35:09.702Z,0
2022-09-27T05:36:10.605Z,0
2022-09-27T05:37:11.795Z,0
2022-09-27T05:38:12.516Z,0
2022-09-27T05:39:13.178Z,0
2022-09-27T05:40:51.938Z,0
2022-09-27T05:41:15.292Z,0
2022-09-27T05:42:14.661Z,0
2022-09-27T05:43:15.408Z,0
2022-09-27T05:44:16.607Z,0
2022-09-27T05:45:17.256Z,0
2022-09-27T05:46:19.254Z,0
2022-09-27T05:47:19.159Z,0
2022-09-27T05:48:20.361Z,0
2022-09-27T05:49:19.965Z,0
2022-09-27T05:50:20.871Z,0
2022-09-27T05:51:21.465Z,0
2022-09-27T05:52:30.040Z,5.63
2022-09-27T05:53:22.790Z,5.63
2022-09-27T05:54:23.739Z,5.63
2022-09-27T05:55:24.660Z,0
2022-09-27T05:56:25.577Z,0
2022-09-27T05:57:25.193Z,5.63
2022-09-27T05:58:26.408Z,5.63
2022-09-27T05:59:26.041Z,5.63
2022-09-27T06:00:26.711Z,5.63
2022-09-27T06:01:28.438Z,5.63
2022-09-27T06:02:29.090Z,5.63
2022-09-27T06:03:29.901Z,5.63
2022-09-27T06:04:30.200Z,5.63
2022-09-27T06:05:30.543Z,5.63
2022-09-27T06:06:31.733Z,5.63
2022-09-27T06:07:32.946Z,5.63
2022-09-27T06:08:32.852Z,5.63
2022-09-27T06:09:34.226Z,5.63
2022-09-27T06:10:34.117Z,5.63
2022-09-27T06:11:35.331Z,11.25
2022-09-27T06:12:36.241Z,11.25
2022-09-27T06:13:36.232Z,11.25
2022-09-27T06:14:36.856Z,11.25
2022-09-27T06:15:37.482Z,11.25
2022-09-27T06:16:38.841Z,11.25
2022-09-27T06:17:38.770Z,11.25
2022-09-27T06:18:39.372Z,11.25
2022-09-27T06:19:40.285Z,11.25
2022-09-27T06:20:41.525Z,11.25
2022-09-27T06:21:41.718Z,11.25
2022-09-27T06:22:41.633Z,11.25
2022-09-27T06:23:42.066Z,11.25
2022-09-27T06:24:43.281Z,11.25
2022-09-27T06:25:43.204Z,11.25
2022-09-27T06:26:44.433Z,11.25
2022-09-27T06:27:44.050Z,11.25
2022-09-27T06:28:45.545Z,11.25
2022-09-27T06:29:46.044Z,11.25
2022-09-27T06:30:46.110Z,5.63
2022-09-27T06:31:46.136Z,5.63
2022-09-27T06:32:46.019Z,5.63
2022-09-27T06:33:46.154Z,11.25
2022-09-27T06:34:47.077Z,11.25
2022-09-27T06:35:47.298Z,11.25
2022-09-27T06:36:49.408Z,11.25
2022-09-27T06:37:47.466Z,11.25
2022-09-27T06:38:48.459Z,11.25
2022-09-27T06:39:49.354Z,11.25
2022-09-27T06:40:50.217Z,11.25
2022-09-27T06:41:50.633Z,11.25
2022-09-27T06:42:51.833Z,11.25
2022-09-27T06:43:52.140Z,16.88
2022-09-27T06:44:56.130Z,16.88
2022-09-27T06:45:53.954Z,16.88
2022-09-27T06:46:54.246Z,16.88
2022-09-27T06:47:53.847Z,16.88
2022-09-27T06:48:55.080Z,16.88
2022-09-27T06:49:54.988Z,16.88
2022-09-27T06:50:56.211Z,11.25
2022-09-27T06:51:56.205Z,11.25
2022-09-27T06:52:56.882Z,11.25
2022-09-27T06:53:58.152Z,16.88
2022-09-27T06:54:58.052Z,16.88
2022-09-27T06:55:58.652Z,16.88
2022-09-27T06:57:04.104Z,16.88
2022-09-27T06:58:00.302Z,11.25
2022-09-27T06:59:00.494Z,11.25
2022-09-27T07:00:01.724Z,11.25
2022-09-27T07:01:02.373Z,11.25
2022-09-27T07:02:03.399Z,11.25
2022-09-27T07:03:03.613Z,16.88
2022-09-27T07:04:03.497Z,11.25
2022-09-27T07:05:04.704Z,16.88
2022-09-27T07:06:05.643Z,16.88
2022-09-27T07:07:05.964Z,28.13
2022-09-27T07:08:07.179Z,28.13
2022-09-27T07:09:07.117Z,39.38
2022-09-27T07:10:15.380Z,33.75
2022-09-27T07:11:08.869Z,28.13
2022-09-27T07:12:08.225Z,33.75
2022-09-27T07:13:09.121Z,28.13
2022-09-27T07:14:09.923Z,28.13
2022-09-27T07:15:11.157Z,28.13
2022-09-27T07:16:11.891Z,33.75
2022-09-27T07:17:12.731Z,33.75
2022-09-27T07:18:12.935Z,45
2022-09-27T07:19:13.949Z,39.38
2022-09-27T07:20:14.581Z,33.75
2022-09-27T07:21:16.718Z,33.75
2022-09-27T07:22:14.345Z,28.13
2022-09-27T07:23:15.547Z,22.5
2022-09-27T07:24:15.882Z,22.5
2022-09-27T07:25:16.074Z,22.5
2022-09-27T07:26:16.573Z,22.5
2022-09-27T07:27:16.876Z,28.13
2022-09-27T07:28:19.690Z,33.75
2022-09-27T07:29:17.442Z,28.13
2022-09-27T07:30:17.793Z,28.13
2022-09-27T07:31:19.325Z,22.5
2022-09-27T07:32:19.679Z,28.13
2022-09-27T07:33:19.862Z,33.75
2022-09-27T07:34:19.976Z,28.13
2022-09-27T07:35:21.262Z,28.13
2022-09-27T07:36:20.898Z,33.75
2022-09-27T07:37:22.168Z,33.75
2022-09-27T07:38:22.826Z,39.38
2022-09-27T07:39:24.047Z,45
2022-09-27T07:40:24.478Z,50.63
2022-09-27T07:41:24.740Z,39.38
2022-09-27T07:42:24.377Z,45
2022-09-27T07:43:25.897Z,50.63
2022-09-27T07:44:26.666Z,56.25
2022-09-27T07:45:26.293Z,50.63
2022-09-27T07:46:27.737Z,56.25
2022-09-27T07:47:28.396Z,56.25
2022-09-27T07:48:28.882Z,56.25
2022-09-27T07:49:29.107Z,56.25
2022-09-27T07:50:29.130Z,56.25
2022-09-27T07:51:30.035Z,50.63
2022-09-27T07:52:30.972Z,39.38
2022-09-27T07:53:32.194Z,39.38
2022-09-27T07:54:32.356Z,45
2022-09-27T07:55:32.998Z,45
2022-09-27T07:56:34.231Z,39.38
2022-09-27T07:57:34.452Z,73.13
2022-09-27T07:58:35.076Z,90
2022-09-27T07:59:36.574Z,56.25
2022-09-27T08:00:36.207Z,61.88
2022-09-27T08:01:37.459Z,101.25
2022-09-27T08:02:39.312Z,56.25
2022-09-27T08:03:37.927Z,95.63
2022-09-27T08:04:39.456Z,78.75
2022-09-27T08:05:40.071Z,78.75
2022-09-27T08:06:40.424Z,73.13
2022-09-27T08:07:41.643Z,101.25
2022-09-27T08:08:42.561Z,90
2022-09-27T08:09:43.081Z,101.25
2022-09-27T08:10:43.304Z,61.88
2022-09-27T08:11:43.503Z,61.88
2022-09-27T08:12:43.733Z,90
2022-09-27T08:13:44.957Z,73.13
2022-09-27T08:14:58.208Z,73.13
2022-09-27T08:15:45.130Z,84.38
2022-09-27T08:16:46.054Z,61.88
2022-09-27T08:17:46.907Z,78.75
2022-09-27T08:18:47.171Z,73.13
2022-09-27T08:19:47.120Z,67.5
2022-09-27T08:20:48.045Z,67.5
2022-09-27T08:21:48.973Z,73.13
2022-09-27T08:22:50.486Z,90
2022-09-27T08:23:50.413Z,78.75
2022-09-27T08:24:50.815Z,73.13
2022-09-27T08:25:50.742Z,78.75
2022-09-27T08:26:51.766Z,95.63
2022-09-27T08:27:53.339Z,78.75
2022-09-27T08:28:53.310Z,84.38
2022-09-27T08:29:53.530Z,50.63
2022-09-27T08:30:54.018Z,50.63
2022-09-27T08:31:54.551Z,45
2022-09-27T08:32:54.578Z,56.25
2022-09-27T08:33:58.086Z,90
2022-09-27T08:34:55.102Z,90
2022-09-27T08:35:54.774Z,78.75
2022-09-27T08:36:56.313Z,90
2022-09-27T08:37:56.247Z,61.88
2022-09-27T08:38:56.612Z,61.88
2022-09-27T08:40:01.987Z,67.5
2022-09-27T08:40:58.870Z,84.38
2022-09-27T08:41:59.108Z,95.63
2022-09-27T08:43:00.044Z,90
2022-09-27T08:44:00.972Z,56.25
2022-09-27T08:45:07.803Z,78.75
2022-09-27T08:46:02.162Z,67.5
2022-09-27T08:47:01.799Z,61.88
2022-09-27T08:48:03.414Z,61.88
2022-09-27T08:49:03.043Z,73.13
2022-09-27T08:50:03.459Z,73.13
2022-09-27T08:51:04.413Z,67.5
2022-09-27T08:52:04.912Z,73.13
2022-09-27T08:53:05.189Z,84.38
2022-09-27T08:54:05.400Z,101.25
2022-09-27T08:55:06.116Z,95.63
2022-09-27T08:56:07.399Z,84.38
2022-09-27T08:57:07.330Z,101.25
2022-09-27T08:58:08.291Z,84.38
2022-09-27T08:59:09.794Z,73.13
2022-09-27T09:00:10.003Z,73.13
2022-09-27T09:01:10.495Z,61.88
2022-09-27T09:02:10.503Z,73.13
2022-09-27T09:03:11.804Z,67.5
2022-09-27T09:04:11.771Z,61.88
2022-09-27T09:05:11.908Z,61.88
2022-09-27T09:06:13.111Z,61.88
2022-09-27T09:07:13.177Z,61.88
2022-09-27T09:08:14.073Z,61.88
2022-09-27T09:09:14.994Z,61.88
2022-09-27T09:10:14.901Z,67.5
2022-09-27T09:11:15.541Z,67.5
2022-09-27T09:12:16.456Z,67.5
2022-09-27T09:13:17.090Z,67.5
2022-09-27T09:14:25.000Z,73.13
2022-09-27T09:15:18.004Z,73.13
2022-09-27T09:16:19.233Z,78.75
2022-09-27T09:17:19.175Z,84.38
2022-09-27T09:18:20.721Z,84.38
2022-09-27T09:19:20.910Z,101.25
2022-09-27T09:20:28.253Z,123.75
2022-09-27T09:21:21.939Z,129.38
2022-09-27T09:22:23.445Z,146.25
2022-09-27T09:23:23.720Z,146.25
2022-09-27T09:24:23.876Z,140.63
2022-09-27T09:25:24.959Z,106.88
2022-09-27T09:26:25.911Z,95.63
2022-09-27T09:27:26.115Z,90
2022-09-27T09:28:26.036Z,84.38
2022-09-27T09:29:26.650Z,78.75
2022-09-27T09:30:28.008Z,78.75
2022-09-27T09:31:28.916Z,78.75
2022-09-27T09:32:29.879Z,78.75
2022-09-27T09:33:33.115Z,78.75
2022-09-27T09:34:30.111Z,84.38
2022-09-27T09:35:30.539Z,84.38
2022-09-27T09:36:31.741Z,78.75
2022-09-27T09:37:31.957Z,73.13
2022-09-27T09:38:32.164Z,73.13
2022-09-27T09:39:32.810Z,67.5
2022-09-27T09:40:34.553Z,67.5
2022-09-27T09:41:33.932Z,67.5
2022-09-27T09:42:34.844Z,78.75
2022-09-27T09:43:36.078Z,61.88
2022-09-27T09:44:35.893Z,61.88
2022-09-27T09:45:36.988Z,56.25
2022-09-27T09:46:38.107Z,61.88
2022-09-27T09:47:37.589Z,50.63
2022-09-27T09:48:38.937Z,56.25
2022-09-27T09:49:39.156Z,78.75
2022-09-27T09:50:39.363Z,84.38
2022-09-27T09:51:39.954Z,101.25
2022-09-27T09:52:40.456Z,140.63
2022-09-27T09:53:40.691Z,118.13
2022-09-27T09:54:41.631Z,90
2022-09-27T09:55:42.243Z,95.63
2022-09-27T09:56:42.195Z,90
2022-09-27T09:57:42.878Z,78.75
2022-09-27T09:58:43.810Z,73.13
2022-09-27T09:59:44.785Z,61.88
2022-09-27T10:00:45.156Z,67.5
2022-09-27T10:01:45.813Z,61.88
2022-09-27T10:02:46.005Z,56.25
2022-09-27T10:03:46.408Z,50.63
2022-09-27T10:04:46.003Z,50.63
2022-09-27T10:05:47.041Z,73.13
2022-09-27T10:06:47.973Z,67.5
2022-09-27T10:07:48.898Z,67.5
2022-09-27T10:08:49.521Z,84.38
2022-09-27T10:09:51.021Z,67.5
2022-09-27T10:10:51.331Z,45
2022-09-27T10:11:51.609Z,45
2022-09-27T10:12:52.107Z,56.25
2022-09-27T10:13:51.487Z,56.25
2022-09-27T10:14:52.114Z,50.63
2022-09-27T10:15:53.418Z,45
2022-09-27T10:16:53.821Z,45
2022-09-27T10:17:53.719Z,50.63
2022-09-27T10:19:01.310Z,50.63
2022-09-27T10:19:55.221Z,45
2022-09-27T10:20:56.431Z,45
2022-09-27T10:21:56.629Z,50.63
2022-09-27T10:22:56.820Z,50.63
2022-09-27T10:23:57.023Z,50.63
2022-09-27T10:24:57.956Z,61.88
2022-09-27T10:25:58.275Z,78.75
2022-09-27T10:26:58.226Z,84.38
2022-09-27T10:27:58.864Z,78.75
2022-09-27T10:29:00.112Z,84.38
2022-09-27T10:30:00.604Z,95.63
2022-09-27T10:31:00.557Z,90
2022-09-27T10:32:02.130Z,118.13
2022-09-27T10:33:01.757Z,230.63
2022-09-27T10:34:02.976Z,202.5
2022-09-27T10:35:03.806Z,168.75
2022-09-27T10:36:03.529Z,191.25
2022-09-27T10:37:04.456Z,106.88
2022-09-27T10:38:04.954Z,95.63
2022-09-27T10:39:05.446Z,95.63
2022-09-27T10:40:04.792Z,123.75
2022-09-27T10:41:06.025Z,106.88
2022-09-27T10:42:06.236Z,95.63
2022-09-27T10:43:06.600Z,106.88
2022-09-27T10:44:08.117Z,106.88
2022-09-27T10:45:08.075Z,180
2022-09-27T10:46:09.119Z,84.38
2022-09-27T10:47:09.338Z,73.13
2022-09-27T10:48:09.575Z,67.5
2022-09-27T10:49:10.727Z,56.25
2022-09-27T10:50:13.409Z,56.25
2022-09-27T10:51:15.025Z,50.63
2022-09-27T10:52:11.649Z,56.25
2022-09-27T10:53:12.857Z,50.63
2022-09-27T10:54:12.500Z,50.63
2022-09-27T10:55:13.402Z,45
2022-09-27T10:56:14.615Z,45
2022-09-27T10:57:14.511Z,50.63
2022-09-27T10:58:15.440Z,61.88
2022-09-27T10:59:16.471Z,73.13
2022-09-27T11:00:17.104Z,106.88
2022-09-27T11:01:18.985Z,90
2022-09-27T11:02:19.221Z,67.5
2022-09-27T11:03:19.927Z,56.25
2022-09-27T11:04:21.423Z,56.25
2022-09-27T11:05:26.947Z,61.88
2022-09-27T11:06:22.262Z,157.5
2022-09-27T11:07:22.926Z,123.75
2022-09-27T11:08:24.161Z,112.5
2022-09-27T11:09:24.437Z,106.88
2022-09-27T11:10:24.482Z,236.25
2022-09-27T11:11:25.729Z,438.75
2022-09-27T11:12:25.418Z,618.75
2022-09-27T11:13:26.387Z,405
2022-09-27T11:14:27.313Z,236.25
2022-09-27T11:15:27.664Z,275.63
2022-09-27T11:16:28.585Z,118.13
2022-09-27T11:17:29.785Z,275.63
2022-09-27T11:18:30.446Z,230.63
2022-09-27T11:19:32.404Z,236.25
2022-09-27T11:20:32.957Z,236.25
2022-09-27T11:21:33.158Z,95.63
2022-09-27T11:22:33.820Z,78.75
2022-09-27T11:23:35.030Z,123.75
2022-09-27T11:24:35.228Z,118.13
2022-09-27T11:25:42.794Z,163.13
2022-09-27T11:26:36.897Z,129.38
2022-09-27T11:27:37.212Z,123.75
2022-09-27T11:28:38.175Z,112.5
2022-09-27T11:29:39.280Z,106.88
2022-09-27T11:30:40.236Z,101.25
2022-09-27T11:31:40.297Z,101.25
2022-09-27T11:32:40.643Z,95.63
2022-09-27T11:33:41.844Z,90
2022-09-27T11:34:42.811Z,101.25
2022-09-27T11:35:43.505Z,112.5
2022-09-27T11:36:44.496Z,101.25
2022-09-27T11:37:44.698Z,146.25
2022-09-27T11:39:14.093Z,123.75
2022-09-27T11:39:45.650Z,123.75
2022-09-27T11:40:45.888Z,123.75
2022-09-27T11:41:46.095Z,123.75
2022-09-27T11:42:47.048Z,95.63
2022-09-27T11:43:46.972Z,90
2022-09-27T11:44:48.208Z,84.38
2022-09-27T11:46:47.113Z,84.38
2022-09-27T11:47:36.501Z,90
2022-09-27T11:48:36.821Z,95.63
2022-09-27T11:49:37.024Z,129.38
2022-09-27T11:50:37.742Z,208.13
2022-09-27T11:51:37.686Z,101.25
2022-09-27T11:52:38.370Z,118.13
2022-09-27T11:53:39.577Z,101.25
2022-09-27T11:54:40.242Z,112.5
2022-09-27T11:55:41.203Z,101.25
2022-09-27T11:56:40.836Z,73.13
2022-09-27T11:57:41.555Z,163.13
2022-09-27T11:58:44.679Z,140.63
2022-09-27T11:59:42.797Z,129.38
2022-09-27T12:00:43.458Z,73.13
2022-09-27T12:01:44.638Z,67.5
2022-09-27T12:02:45.294Z,67.5
2022-09-27T12:03:45.227Z,61.88
2022-09-27T12:04:46.175Z,61.88
2022-09-27T12:05:55.179Z,56.25
2022-09-27T12:06:46.645Z,56.25
2022-09-27T12:07:46.669Z,56.25
2022-09-27T12:08:47.646Z,50.63
2022-09-27T12:09:48.841Z,56.25
2022-09-27T12:10:49.792Z,50.63
2022-09-27T12:11:50.126Z,50.63
2022-09-27T12:12:51.351Z,45
2022-09-27T12:13:51.714Z,33.75
2022-09-27T12:14:52.352Z,33.75
2022-09-27T12:15:53.614Z,33.75
2022-09-27T12:16:53.831Z,33.75
2022-09-27T12:17:54.840Z,45
2022-09-27T12:19:02.455Z,50.63
2022-09-27T12:19:55.173Z,56.25
2022-09-27T12:20:56.392Z,56.25
2022-09-27T12:21:56.657Z,50.63
2022-09-27T12:23:14.477Z,50.63
2022-09-27T12:23:57.130Z,50.63
2022-09-27T12:24:58.327Z,50.63
2022-09-27T12:25:58.949Z,61.88
2022-09-27T12:26:59.361Z,61.88
2022-09-27T12:28:00.978Z,61.88
2022-09-27T12:29:00.326Z,56.25
2022-09-27T12:30:01.818Z,56.25
2022-09-27T12:31:39.160Z,50.63
2022-09-27T12:32:03.032Z,50.63
2022-09-27T12:33:03.053Z,50.63
2022-09-27T12:34:03.971Z,45
2022-09-27T12:35:03.882Z,45
2022-09-27T12:36:05.111Z,39.38
2022-09-27T12:37:05.062Z,33.75
2022-09-27T12:38:05.327Z,28.13
2022-09-27T12:39:05.827Z,28.13
2022-09-27T12:40:06.027Z,28.13
2022-09-27T12:41:06.474Z,33.75
2022-09-27T12:42:06.399Z,39.38
2022-09-27T12:43:07.193Z,39.38
2022-09-27T12:44:07.392Z,39.38
2022-09-27T12:45:08.833Z,45
2022-09-27T12:46:08.863Z,45
2022-09-27T12:47:09.737Z,45
2022-09-27T12:48:10.041Z,45
2022-09-27T12:49:10.561Z,39.38
2022-09-27T12:50:16.346Z,33.75
2022-09-27T12:51:11.919Z,28.13
2022-09-27T12:52:12.457Z,28.13
2022-09-27T12:53:12.052Z,28.13
2022-09-27T12:54:12.984Z,33.75
2022-09-27T12:55:14.542Z,45
2022-09-27T12:56:14.788Z,56.25
2022-09-27T12:57:18.070Z,101.25
2022-09-27T12:58:15.521Z,78.75
2022-09-27T12:59:16.291Z,95.63
2022-09-27T13:00:16.276Z,61.88
2022-09-27T13:01:18.426Z,50.63
2022-09-27T13:02:17.804Z,45
2022-09-27T13:03:37.428Z,33.75
2022-09-27T13:04:18.354Z,33.75
2022-09-27T13:05:19.271Z,28.13
2022-09-27T13:06:20.582Z,22.5
2022-09-27T13:07:21.558Z,22.5
2022-09-27T13:08:21.566Z,22.5
2022-09-27T13:09:23.092Z,16.88
2022-09-27T13:10:23.560Z,16.88
2022-09-27T13:11:23.768Z,16.88
2022-09-27T13:12:23.839Z,16.88
2022-09-27T13:13:25.048Z,16.88
2022-09-27T13:14:25.369Z,16.88
2022-09-27T13:15:25.290Z,16.88
2022-09-27T13:16:26.887Z,16.88
2022-09-27T13:17:26.297Z,22.5
2022-09-27T13:18:27.358Z,22.5
2022-09-27T13:19:31.938Z,22.5
2022-09-27T13:20:28.130Z,22.5
2022-09-27T13:21:28.410Z,28.13
2022-09-27T13:22:28.982Z,28.13
2022-09-27T13:23:29.179Z,33.75
2022-09-27T13:24:29.535Z,33.75
2022-09-27T13:25:30.197Z,33.75
2022-09-27T13:26:31.391Z,39.38
2022-09-27T13:27:32.039Z,33.75
2022-09-27T13:28:33.690Z,33.75
2022-09-27T13:29:33.661Z,28.13
2022-09-27T13:30:34.629Z,22.5
2022-09-27T13:31:35.968Z,22.5
2022-09-27T13:32:36.177Z,22.5
2022-09-27T13:33:36.082Z,22.5
2022-09-27T13:34:37.009Z,22.5
2022-09-27T13:35:38.506Z,22.5
2022-09-27T13:36:38.523Z,22.5
2022-09-27T13:37:39.814Z,16.88
2022-09-27T13:38:40.512Z,16.88
2022-09-27T13:39:41.444Z,16.88
2022-09-27T13:40:42.118Z,16.88
2022-09-27T13:41:42.091Z,16.88
2022-09-27T13:42:43.350Z,16.88
2022-09-27T13:43:43.005Z,16.88
2022-09-27T13:44:44.205Z,22.5
2022-09-27T13:45:44.698Z,22.5
2022-09-27T13:46:46.896Z,22.5
2022-09-27T13:47:45.265Z,22.5
2022-09-27T13:48:46.571Z,22.5
2022-09-27T13:49:46.787Z,22.5
2022-09-27T13:50:47.078Z,28.13